createdAt,value
2023-04-23T00:01:12.361Z,16.80
2023-04-23T00:03:43.207Z,16.70
2023-04-23T00:06:13.707Z,16.60
2023-04-23T00:08:42.765Z,16.50
2023-04-23T00:11:11.444Z,16.50
2023-04-23T00:13:40.061Z,16.50
2023-04-23T00:16:10.792Z,16.50
2023-04-23T00:18:38.915Z,16.30
2023-04-23T00:21:08.819Z,16.50
2023-04-23T00:23:39.138Z,16.50
2023-04-23T00:26:07.370Z,16.50
2023-04-23T00:28:35.449Z,16.40
2023-04-23T00:31:03.819Z,16.30
2023-04-23T00:33:31.899Z,16.30
2023-04-23T00:36:00.677Z,16.40
2023-04-23T00:38:29.021Z,16.40
2023-04-23T00:40:58.421Z,16.40
2023-04-23T00:43:27.137Z,16.40
2023-04-23T00:45:55.279Z,16.50
2023-04-23T00:48:23.924Z,16.40
2023-04-23T00:50:58.292Z,16.40
2023-04-23T00:53:27.878Z,16.50
2023-04-23T00:55:56.059Z,16.50
2023-04-23T00:58:25.829Z,16.60
2023-04-23T01:00:54.308Z,16.70
2023-04-23T01:03:22.996Z,16.80
2023-04-23T01:05:51.515Z,16.90
2023-04-23T01:08:23.261Z,16.90
2023-04-23T01:10:51.764Z,16.90
2023-04-23T01:13:20.084Z,16.90
2023-04-23T01:15:49.600Z,16.90
2023-04-23T01:18:19.378Z,16.90
2023-04-23T01:20:47.726Z,16.70
2023-04-23T01:23:17.263Z,16.50
2023-04-23T01:25:45.724Z,16.30
2023-04-23T01:28:13.984Z,16.10
2023-04-23T01:30:43.705Z,15.90
2023-04-23T01:33:12.495Z,15.90
2023-04-23T01:35:41.604Z,15.90
2023-04-23T01:38:11.533Z,15.90
2023-04-23T01:40:40.908Z,15.90
2023-04-23T01:43:09.774Z,15.80
2023-04-23T01:45:38.318Z,15.80
2023-04-23T01:48:06.742Z,15.90
2023-04-23T01:50:35.109Z,15.80
2023-04-23T01:53:03.424Z,15.90
2023-04-23T01:55:32.008Z,16.00
2023-04-23T01:58:02.015Z,16.00
2023-04-23T02:00:30.236Z,16.10
2023-04-23T02:02:58.992Z,16.20
2023-04-23T02:05:29.586Z,16.20
2023-04-23T02:07:58.163Z,16.20
2023-04-23T02:10:26.645Z,16.20
2023-04-23T02:12:55.367Z,16.10
2023-04-23T02:15:25.199Z,16.00
2023-04-23T02:17:53.974Z,15.90
2023-04-23T02:20:22.872Z,16.00
2023-04-23T02:22:51.521Z,16.10
2023-04-23T02:25:22.149Z,16.20
2023-04-23T02:27:50.626Z,16.10
2023-04-23T02:30:19.867Z,15.90
2023-04-23T02:32:50.168Z,15.80
2023-04-23T02:35:18.640Z,15.80
2023-04-23T02:37:47.355Z,15.90
2023-04-23T02:40:15.501Z,15.80
2023-04-23T02:42:46.139Z,15.80
2023-04-23T02:45:14.271Z,15.90
2023-04-23T02:47:42.827Z,15.90
2023-04-23T02:50:12.568Z,15.90
2023-04-23T02:52:41.459Z,16.00
2023-04-23T02:55:10.766Z,16.00
2023-04-23T02:57:39.804Z,15.90
2023-04-23T03:00:08.804Z,15.80
2023-04-23T03:02:49.441Z,15.80
2023-04-23T03:05:59.355Z,15.80
2023-04-23T03:08:40.900Z,15.80
2023-04-23T03:11:09.637Z,16.00
2023-04-23T03:13:38.239Z,15.90
2023-04-23T03:16:06.467Z,16.00
2023-04-23T03:18:35.726Z,16.00
2023-04-23T03:21:04.318Z,16.00
2023-04-23T03:23:32.953Z,16.00
2023-04-23T03:26:02.740Z,16.00
2023-04-23T03:28:31.458Z,16.10
2023-04-23T03:30:59.912Z,16.20
2023-04-23T03:33:28.221Z,16.20
2023-04-23T03:35:56.949Z,16.10
2023-04-23T03:38:30.118Z,16.00
2023-04-23T03:40:59.769Z,15.90
2023-04-23T03:43:29.926Z,15.80
2023-04-23T03:46:03.920Z,15.80
2023-04-23T03:48:35.947Z,15.80
2023-04-23T03:51:09.203Z,15.90
2023-04-23T03:53:45.601Z,15.80
2023-04-23T03:56:34.178Z,15.70
2023-04-23T03:59:16.005Z,15.60
2023-04-23T04:01:45.967Z,15.60
2023-04-23T04:04:14.231Z,15.50
2023-04-23T04:06:43.176Z,15.40
2023-04-23T04:09:11.390Z,15.40
2023-04-23T04:11:41.103Z,15.30
2023-04-23T04:14:10.467Z,15.30
2023-04-23T04:16:39.887Z,15.20
2023-04-23T04:19:08.460Z,15.20
2023-04-23T04:21:36.881Z,15.20
2023-04-23T04:24:05.847Z,15.10
2023-04-23T04:26:34.571Z,15.10
2023-04-23T04:29:03.158Z,15.00
2023-04-23T04:31:31.358Z,15.00
2023-04-23T04:34:01.426Z,15.80
2023-04-23T04:36:29.939Z,14.80
2023-04-23T04:38:58.816Z,14.70
2023-04-23T04:41:27.860Z,14.70
2023-04-23T04:43:55.975Z,14.60
2023-04-23T04:46:26.197Z,14.50
2023-04-23T04:48:54.280Z,14.50
2023-04-23T04:51:24.343Z,14.50
2023-04-23T04:53:52.739Z,14.50
2023-04-23T04:56:24.371Z,14.40
2023-04-23T04:58:52.486Z,14.40
2023-04-23T05:01:20.955Z,14.30
2023-04-23T05:03:49.577Z,14.30
2023-04-23T05:06:17.850Z,14.30
2023-04-23T05:08:48.662Z,14.30
2023-04-23T05:11:17.275Z,14.30
2023-04-23T05:13:45.646Z,14.20
2023-04-23T05:16:13.811Z,14.20
2023-04-23T05:18:42.406Z,14.10
2023-04-23T05:21:10.729Z,14.10
2023-04-23T05:23:39.247Z,14.00
2023-04-23T05:26:08.884Z,14.00
2023-04-23T05:28:37.250Z,13.90
2023-04-23T05:33:51.326Z,13.90
2023-04-23T05:36:19.586Z,13.90
2023-04-23T05:38:47.803Z,13.90
2023-04-23T05:41:17.565Z,14.00
2023-04-23T05:43:45.743Z,14.10
2023-04-23T05:46:13.785Z,14.00
2023-04-23T05:48:41.902Z,14.00
2023-04-23T05:51:09.987Z,14.00
2023-04-23T05:53:38.487Z,14.00
2023-04-23T05:56:06.865Z,14.00
2023-04-23T05:58:39.043Z,14.00
2023-04-23T06:01:07.385Z,14.00
2023-04-23T06:03:36.722Z,14.00
2023-04-23T06:06:04.956Z,13.90
2023-04-23T06:08:33.685Z,13.90
2023-04-23T06:11:01.986Z,13.80
2023-04-23T06:13:30.899Z,13.80
2023-04-23T06:16:00.634Z,13.80
2023-04-23T06:18:29.169Z,13.80
2023-04-23T06:20:57.888Z,13.80
2023-04-23T06:23:26.484Z,13.70
2023-04-23T06:25:54.503Z,13.70
2023-04-23T06:28:23.200Z,13.80
2023-04-23T06:31:15.204Z,13.90
2023-04-23T06:33:43.478Z,13.90
2023-04-23T06:36:11.783Z,13.90
2023-04-23T06:38:42.020Z,13.80
2023-04-23T06:41:10.059Z,13.70
2023-04-23T06:43:38.568Z,13.80
2023-04-23T06:46:27.579Z,13.50
2023-04-23T06:48:55.946Z,13.30
2023-04-23T06:51:26.198Z,13.10
2023-04-23T06:53:54.787Z,13.10
2023-04-23T06:56:22.973Z,13.20
2023-04-23T06:58:51.369Z,13.30
2023-04-23T07:01:22.417Z,13.40
2023-04-23T07:03:54.378Z,13.50
2023-04-23T07:06:23.186Z,13.50
2023-04-23T07:08:51.222Z,13.40
2023-04-23T07:11:19.710Z,13.20
2023-04-23T07:13:47.909Z,13.00
2023-04-23T07:16:16.815Z,13.00
2023-04-23T07:18:45.145Z,13.10
2023-04-23T07:21:15.227Z,13.10
2023-04-23T07:23:43.320Z,13.20
2023-04-23T07:26:12.392Z,13.20
2023-04-23T07:28:40.413Z,13.20
2023-04-23T07:31:09.366Z,13.20
2023-04-23T07:33:37.440Z,13.10
2023-04-23T07:36:05.798Z,13.00
2023-04-23T07:38:35.460Z,12.90
2023-04-23T07:41:04.069Z,12.80
2023-04-23T07:43:32.160Z,12.70
2023-04-23T07:46:00.482Z,12.60
2023-04-23T07:48:28.667Z,12.50
2023-04-23T07:50:57.148Z,12.50
2023-04-23T07:53:25.228Z,12.50
2023-04-23T07:55:56.218Z,12.50
2023-04-23T07:58:25.498Z,12.40
2023-04-23T08:00:54.335Z,12.40
2023-04-23T08:03:23.399Z,12.40
2023-04-23T08:05:52.007Z,12.40
2023-04-23T08:08:20.656Z,12.30
2023-04-23T08:10:48.712Z,12.20
2023-04-23T08:13:19.618Z,12.20
2023-04-23T08:15:49.069Z,12.30
2023-04-23T08:18:17.659Z,12.40
2023-04-23T08:20:45.759Z,12.60
2023-04-23T08:23:14.264Z,12.70
2023-04-23T08:25:42.642Z,12.70
2023-04-23T08:28:10.796Z,12.70
2023-04-23T08:30:40.259Z,12.80
2023-04-23T08:33:08.856Z,12.90
2023-04-23T08:35:37.320Z,13.20
2023-04-23T08:38:09.612Z,13.40
2023-04-23T08:40:38.281Z,13.60
2023-04-23T08:43:10.329Z,13.60
2023-04-23T08:45:42.440Z,13.50
2023-04-23T08:48:10.990Z,13.40
2023-04-23T08:50:40.227Z,13.50
2023-04-23T08:53:09.017Z,13.40
2023-04-23T08:55:37.622Z,13.30
2023-04-23T08:58:06.339Z,13.20
2023-04-23T09:00:36.736Z,13.00
2023-04-23T09:03:06.984Z,13.20
2023-04-23T09:05:36.145Z,13.40
2023-04-23T09:08:06.635Z,13.50
2023-04-23T09:10:38.732Z,13.70
2023-04-23T09:13:07.056Z,13.90
2023-04-23T09:15:38.867Z,14.00
2023-04-23T09:18:08.467Z,14.00
2023-04-23T09:20:37.374Z,14.00
2023-04-23T09:23:08.066Z,13.80
2023-04-23T09:25:36.775Z,13.70
2023-04-23T09:28:08.022Z,13.90
2023-04-23T09:30:42.436Z,14.20
2023-04-23T09:33:13.530Z,14.40
2023-04-23T09:35:43.262Z,14.50
2023-04-23T09:38:11.523Z,14.70
2023-04-23T09:40:39.786Z,14.70
2023-04-23T09:43:11.515Z,14.70
2023-04-23T09:45:48.634Z,14.80
2023-04-23T09:48:18.105Z,15.00
2023-04-23T09:50:46.599Z,14.90
2023-04-23T09:53:15.004Z,14.80
2023-04-23T09:55:46.094Z,14.90
2023-04-23T09:58:15.635Z,15.00
2023-04-23T10:00:44.585Z,15.10
2023-04-23T10:03:12.923Z,15.30
2023-04-23T10:08:15.971Z,15.60
2023-04-23T10:10:59.591Z,15.50
2023-04-23T10:13:31.616Z,15.40
2023-04-23T10:16:13.926Z,15.30
2023-04-23T10:18:47.535Z,15.00
2023-04-23T10:21:18.535Z,14.90
2023-04-23T10:23:48.252Z,14.90
2023-04-23T10:26:17.041Z,15.00
2023-04-23T10:28:48.314Z,15.20
2023-04-23T10:31:16.971Z,15.40
2023-04-23T10:33:55.905Z,15.70
2023-04-23T10:36:30.553Z,15.90
2023-04-23T10:39:05.145Z,16.10
2023-04-23T10:41:36.496Z,16.00
2023-04-23T10:44:06.163Z,16.00
2023-04-23T10:46:39.207Z,16.00
2023-04-23T10:49:14.404Z,16.20
2023-04-23T10:52:18.512Z,16.30
2023-04-23T10:54:51.379Z,16.00
2023-04-23T10:57:20.877Z,16.00
2023-04-23T10:59:53.495Z,16.20
2023-04-23T11:02:24.269Z,16.30
2023-04-23T11:04:55.493Z,16.50
2023-04-23T11:07:27.038Z,16.80
2023-04-23T11:09:57.635Z,17.10
2023-04-23T11:12:33.190Z,17.30
2023-04-23T11:15:10.687Z,17.50
2023-04-23T11:17:57.217Z,17.80
2023-04-23T11:20:25.325Z,17.90
2023-04-23T11:22:55.349Z,18.10
2023-04-23T11:25:26.330Z,18.10
2023-04-23T11:27:54.970Z,18.10
2023-04-23T11:30:25.083Z,18.10
2023-04-23T11:32:54.015Z,17.80
2023-04-23T11:35:22.936Z,17.50
2023-04-23T11:38:01.206Z,17.40
2023-04-23T11:40:33.151Z,17.50
2023-04-23T11:43:04.259Z,17.50
2023-04-23T11:45:32.398Z,17.50
2023-04-23T11:48:01.812Z,17.60
2023-04-23T11:50:32.932Z,17.70
2023-04-23T11:53:05.133Z,17.70
2023-04-23T11:55:34.597Z,17.80
2023-04-23T11:58:03.939Z,17.80
2023-04-23T12:00:31.978Z,17.90
2023-04-23T12:03:00.645Z,18.00
2023-04-23T12:05:30.151Z,18.30
2023-04-23T12:08:08.591Z,18.30
2023-04-23T12:10:45.090Z,18.40
2023-04-23T12:13:16.481Z,18.60
2023-04-23T12:15:48.310Z,18.80
2023-04-23T12:18:16.598Z,19.00
2023-04-23T12:20:44.783Z,19.10
2023-04-23T12:23:12.842Z,18.90
2023-04-23T12:25:41.512Z,18.90
2023-04-23T12:28:10.960Z,18.90
2023-04-23T12:30:44.263Z,18.90
2023-04-23T12:33:12.629Z,19.00
2023-04-23T12:35:41.368Z,19.10
2023-04-23T12:38:22.171Z,19.20
2023-04-23T12:40:50.417Z,19.20
2023-04-23T12:43:19.818Z,19.30
2023-04-23T12:45:48.041Z,19.50
2023-04-23T12:48:16.185Z,19.60
2023-04-23T12:50:45.443Z,19.60
2023-04-23T12:53:13.653Z,19.60
2023-04-23T12:55:43.361Z,19.60
2023-04-23T12:58:11.565Z,19.60
2023-04-23T13:00:41.034Z,19.30
2023-04-23T13:03:09.373Z,19.30
2023-04-23T13:05:37.486Z,19.30
2023-04-23T13:08:05.597Z,19.50
2023-04-23T13:10:34.394Z,19.60
2023-04-23T13:13:02.562Z,19.60
2023-04-23T13:15:30.941Z,19.60
2023-04-23T13:18:00.501Z,19.70
2023-04-23T13:20:28.633Z,19.80
2023-04-23T13:22:56.806Z,19.80
2023-04-23T13:25:24.884Z,20.00
2023-04-23T13:27:52.958Z,20.00
2023-04-23T13:30:21.079Z,20.00
2023-04-23T13:32:49.125Z,20.10
2023-04-23T13:35:18.729Z,20.20
2023-04-23T13:37:46.809Z,20.30
2023-04-23T13:40:14.900Z,20.40
2023-04-23T13:42:42.951Z,20.40
2023-04-23T13:45:12.958Z,20.10
2023-04-23T13:47:42.500Z,20.00
2023-04-23T13:50:11.346Z,20.00
2023-04-23T13:52:40.984Z,20.20
2023-04-23T13:55:10.269Z,20.20
2023-04-23T13:57:39.615Z,20.20
2023-04-23T14:00:08.327Z,20.20
2023-04-23T14:02:36.543Z,20.30
2023-04-23T14:05:06.517Z,20.40
2023-04-23T14:07:35.058Z,20.10
2023-04-23T14:10:04.699Z,20.10
2023-04-23T14:12:32.914Z,20.00
2023-04-23T14:15:01.099Z,20.10
2023-04-23T14:17:30.985Z,20.20
2023-04-23T14:19:59.070Z,20.20
2023-04-23T14:22:27.338Z,20.30
2023-04-23T14:25:02.433Z,20.30
2023-04-23T14:27:35.470Z,20.20
2023-04-23T14:30:05.306Z,20.20
2023-04-23T14:32:33.480Z,20.10
2023-04-23T14:35:02.980Z,20.00
2023-04-23T14:37:31.456Z,19.90
2023-04-23T14:39:59.501Z,19.80
2023-04-23T14:42:27.601Z,19.60
2023-04-23T14:45:00.379Z,19.40
2023-04-23T14:47:28.522Z,19.40
2023-04-23T14:49:57.946Z,19.50
2023-04-23T14:52:26.605Z,19.50
2023-04-23T14:54:56.754Z,19.50
2023-04-23T14:57:25.745Z,19.50
2023-04-23T14:59:53.810Z,19.40
2023-04-23T15:02:23.356Z,19.40
2023-04-23T15:04:51.652Z,19.50
2023-04-23T15:07:19.983Z,19.50
2023-04-23T15:09:48.127Z,19.50
2023-04-23T15:12:42.267Z,19.50
2023-04-23T15:15:15.563Z,19.40
2023-04-23T15:17:45.385Z,19.30
2023-04-23T15:20:13.565Z,19.20
2023-04-23T15:22:42.160Z,19.10
2023-04-23T15:25:10.374Z,19.10
2023-04-23T15:27:38.644Z,19.20
2023-04-23T15:30:07.623Z,19.20
2023-04-23T15:32:35.675Z,19.10
2023-04-23T15:35:05.433Z,19.10
2023-04-23T15:37:33.454Z,19.00
2023-04-23T15:40:02.013Z,19.00
2023-04-23T15:42:31.610Z,19.00
2023-04-23T15:44:59.890Z,19.00
2023-04-23T15:47:28.000Z,19.00
2023-04-23T15:49:56.118Z,19.00
2023-04-23T15:52:26.167Z,19.00
2023-04-23T15:54:57.288Z,18.90
2023-04-23T15:57:47.158Z,18.80
2023-04-23T16:00:17.110Z,18.80
2023-04-23T16:02:45.822Z,18.70
2023-04-23T16:05:14.309Z,18.70
2023-04-23T16:07:44.658Z,18.70
2023-04-23T16:10:12.916Z,18.60
2023-04-23T16:12:45.404Z,18.50
2023-04-23T16:15:13.543Z,18.40
2023-04-23T16:17:44.627Z,18.30
2023-04-23T16:20:16.401Z,18.10
2023-04-23T16:22:48.978Z,18.00
2023-04-23T16:25:21.136Z,17.90
2023-04-23T16:27:49.579Z,17.90
2023-04-23T16:30:18.528Z,18.00
2023-04-23T16:32:46.969Z,18.00
2023-04-23T16:35:15.042Z,18.10
2023-04-23T16:37:44.363Z,18.10
2023-04-23T16:40:16.330Z,18.00
2023-04-23T16:42:44.633Z,17.90
2023-04-23T16:45:13.117Z,17.80
2023-04-23T16:47:43.676Z,17.70
2023-04-23T16:50:12.738Z,17.60
2023-04-23T16:52:41.394Z,17.70
2023-04-23T16:55:10.151Z,17.60
2023-04-23T16:57:40.448Z,17.50
2023-04-23T17:00:10.185Z,17.50
2023-04-23T17:02:39.334Z,17.40
2023-04-23T17:05:09.128Z,17.40
2023-04-23T17:07:37.288Z,17.40
2023-04-23T17:10:05.778Z,17.40
2023-04-23T17:12:33.882Z,17.40
2023-04-23T17:15:03.477Z,17.40
2023-04-23T17:17:31.596Z,17.40
2023-04-23T17:19:59.632Z,17.30
2023-04-23T17:22:27.722Z,17.30
2023-04-23T17:25:01.573Z,17.30
2023-04-23T17:27:29.983Z,17.30
2023-04-23T17:29:58.089Z,17.10
2023-04-23T17:32:27.584Z,17.10
2023-04-23T17:35:06.450Z,17.00
2023-04-23T17:37:37.332Z,17.00
2023-04-23T17:40:06.264Z,17.00
2023-04-23T17:42:34.390Z,17.00
2023-04-23T17:45:02.479Z,17.10
2023-04-23T17:47:33.489Z,17.10
2023-04-23T17:50:01.642Z,17.10
2023-04-23T17:52:31.371Z,17.20
2023-04-23T17:55:00.228Z,17.20
2023-04-23T17:57:28.313Z,17.20
2023-04-23T17:59:56.450Z,17.10
2023-04-23T18:02:24.769Z,17.20
2023-04-23T18:04:54.414Z,17.20
2023-04-23T18:07:22.458Z,17.20
2023-04-23T18:09:50.568Z,17.10
2023-04-23T18:12:18.846Z,17.00
2023-04-23T18:14:47.163Z,17.00
2023-04-23T18:17:17.444Z,16.90
2023-04-23T18:19:45.534Z,17.00
2023-04-23T18:22:14.996Z,17.00
2023-04-23T18:24:43.632Z,17.10
2023-04-23T18:27:12.946Z,17.20
2023-04-23T18:29:44.051Z,17.30
2023-04-23T18:32:20.891Z,17.30
2023-04-23T18:34:56.239Z,17.40
2023-04-23T18:37:33.241Z,17.40
2023-04-23T18:40:01.376Z,17.40
2023-04-23T18:42:31.007Z,17.50
2023-04-23T18:44:59.057Z,17.40
2023-04-23T18:47:31.909Z,17.40
2023-04-23T18:50:02.237Z,17.10
2023-04-23T18:52:32.799Z,16.80
2023-04-23T18:55:00.841Z,16.50
2023-04-23T18:57:28.918Z,16.20
2023-04-23T18:59:57.016Z,15.90
2023-04-23T19:02:35.202Z,15.70
2023-04-23T19:05:04.056Z,15.50
2023-04-23T19:07:37.057Z,15.30
2023-04-23T19:10:05.438Z,15.10
2023-04-23T19:12:33.562Z,15.00
2023-04-23T19:15:01.618Z,14.80
2023-04-23T19:17:31.288Z,14.80
2023-04-23T19:19:59.375Z,14.70
2023-04-23T19:22:27.697Z,14.60
2023-04-23T19:24:57.615Z,14.40
2023-04-23T19:27:25.969Z,14.30
2023-04-23T19:29:56.903Z,14.20
2023-04-23T19:32:25.068Z,14.20
2023-04-23T19:34:53.811Z,14.10
2023-04-23T19:37:21.919Z,14.00
2023-04-23T19:39:51.192Z,13.80
2023-04-23T19:42:21.511Z,13.70
2023-04-23T19:44:49.773Z,13.60
2023-04-23T19:47:17.958Z,13.60
2023-04-23T19:49:46.960Z,13.50
2023-04-23T19:52:17.742Z,13.50
2023-04-23T19:54:50.262Z,13.40
2023-04-23T19:57:22.075Z,14.40
2023-04-23T19:59:51.744Z,13.30
2023-04-23T20:02:19.930Z,13.20
2023-04-23T20:04:48.355Z,13.10
2023-04-23T20:07:16.897Z,13.00
2023-04-23T20:09:45.349Z,12.90
2023-04-23T20:12:14.486Z,12.80
2023-04-23T20:14:44.047Z,12.80
2023-04-23T20:20:06.474Z,12.70
2023-04-23T20:22:37.302Z,12.60
2023-04-23T20:25:05.698Z,12.70
2023-04-23T20:27:35.784Z,12.70
2023-04-23T20:30:06.422Z,12.80
2023-04-23T20:32:36.543Z,12.80
2023-04-23T20:35:04.824Z,12.80
2023-04-23T20:37:32.894Z,12.80
2023-04-23T20:40:01.213Z,12.90
2023-04-23T20:42:30.740Z,12.80
2023-04-23T20:44:58.787Z,12.80
2023-04-23T20:47:29.198Z,12.90
2023-04-23T20:49:57.274Z,12.90
2023-04-23T20:52:26.334Z,12.80
2023-04-23T20:54:54.442Z,12.60
2023-04-23T20:57:22.721Z,12.40
2023-04-23T20:59:51.553Z,12.30
2023-04-23T21:02:20.175Z,12.20
2023-04-23T21:04:49.734Z,12.30
2023-04-23T21:07:19.116Z,12.60
2023-04-23T21:09:47.181Z,12.70
2023-04-23T21:12:15.675Z,12.70
2023-04-23T21:14:43.869Z,12.40
2023-04-23T21:17:12.123Z,12.20
2023-04-23T21:19:40.632Z,12.00
2023-04-23T21:22:10.772Z,11.90
2023-04-23T21:24:39.250Z,11.80
2023-04-23T21:27:07.388Z,11.80
2023-04-23T21:29:35.945Z,11.80
2023-04-23T21:32:04.094Z,11.70
2023-04-23T21:34:32.689Z,11.80
2023-04-23T21:37:00.982Z,11.80
2023-04-23T21:39:31.260Z,11.80
2023-04-23T21:41:59.720Z,11.90
2023-04-23T21:44:30.866Z,11.90
2023-04-23T21:46:59.409Z,12.00
2023-04-23T21:49:27.908Z,12.00
2023-04-23T21:52:03.490Z,12.00
2023-04-23T21:54:33.310Z,12.00
2023-04-23T21:57:03.265Z,12.00
2023-04-23T22:02:19.499Z,11.90
2023-04-23T22:04:48.528Z,12.00
2023-04-23T22:07:17.161Z,12.10
2023-04-23T22:09:46.553Z,12.20
2023-04-23T22:12:15.318Z,12.20
2023-04-23T22:14:43.577Z,12.30
2023-04-23T22:17:19.081Z,12.30
2023-04-23T22:19:49.291Z,12.30
2023-04-23T22:22:25.074Z,12.30
2023-04-23T22:24:56.705Z,12.40
2023-04-23T22:27:27.543Z,12.40
2023-04-23T22:29:56.239Z,12.50
2023-04-23T22:32:25.716Z,12.50
2023-04-23T22:34:55.337Z,12.50
2023-04-23T22:37:25.197Z,12.50
2023-04-23T22:39:55.183Z,12.50
2023-04-23T22:42:24.095Z,12.50
2023-04-23T22:44:52.645Z,12.50
2023-04-23T22:47:21.817Z,12.50
2023-04-23T22:49:49.984Z,12.50
2023-04-23T22:52:18.424Z,12.50
2023-04-23T22:54:46.871Z,12.50
2023-04-23T22:57:16.645Z,12.50
2023-04-23T22:59:45.314Z,12.50
2023-04-23T23:02:13.507Z,12.50
2023-04-23T23:04:43.293Z,12.60
2023-04-23T23:07:15.541Z,12.50
2023-04-23T23:09:43.968Z,12.50
2023-04-23T23:12:13.374Z,12.50
2023-04-23T23:14:43.237Z,12.40
2023-04-23T23:17:11.566Z,12.40
2023-04-23T23:19:42.741Z,12.30
2023-04-23T23:22:11.816Z,12.40
2023-04-23T23:24:39.849Z,12.30
2023-04-23T23:27:07.936Z,12.30
2023-04-23T23:29:36.577Z,12.20
2023-04-23T23:32:06.633Z,12.20
2023-04-23T23:34:34.990Z,12.30
2023-04-23T23:37:03.101Z,12.20
2023-04-23T23:39:31.203Z,12.20
2023-04-23T23:41:59.962Z,12.20
2023-04-23T23:44:28.308Z,12.20
2023-04-23T23:46:56.506Z,12.20
2023-04-23T23:49:26.112Z,12.20
2023-04-23T23:51:54.273Z,12.10
2023-04-23T23:54:22.313Z,12.10
2023-04-23T23:56:50.454Z,12.10
2023-04-23T23:59:18.564Z,12.00
